sensor_id;sensor_type;location;lat;lon;timestamp;P1;durP1;ratioP1;P2;durP2;ratioP2
37877;SDS011;23715;53.652;8.516;2023-04-06T00:00:25;13.62;;;11.78;;
37877;SDS011;23715;53.652;8.516;2023-04-06T00:05:28;13.40;;;11.97;;
37877;SDS011;23715;53.652;8.516;2023-04-06T00:10:29;15.35;;;11.90;;
37877;SDS011;23715;53.652;8.516;2023-04-06T00:15:29;17.57;;;14.20;;
37877;SDS011;23715;53.652;8.516;2023-04-06T00:20:29;12.28;;;11.18;;
37877;SDS011;23715;53.652;8.516;2023-04-06T00:25:30;14.78;;;11.90;;
37877;SDS011;23715;53.652;8.516;2023-04-06T00:35:30;14.50;;;11.00;;
37877;SDS011;23715;53.652;8.516;2023-04-06T00:45:31;11.47;;;10.27;;
37877;SDS011;23715;53.652;8.516;2023-04-06T00:50:32;12.37;;;11.08;;
37877;SDS011;23715;53.652;8.516;2023-04-06T00:55:33;12.43;;;11.12;;
37877;SDS011;23715;53.652;8.516;2023-04-06T01:00:35;15.40;;;12.05;;
37877;SDS011;23715;53.652;8.516;2023-04-06T01:10:37;15.00;;;13.35;;
37877;SDS011;23715;53.652;8.516;2023-04-06T01:15:39;14.78;;;12.63;;
37877;SDS011;23715;53.652;8.516;2023-04-06T01:20:40;15.78;;;13.45;;
37877;SDS011;23715;53.652;8.516;2023-04-06T01:25:40;15.20;;;13.50;;
37877;SDS011;23715;53.652;8.516;2023-04-06T01:30:41;15.50;;;13.88;;
37877;SDS011;23715;53.652;8.516;2023-04-06T01:35:45;13.90;;;12.43;;
37877;SDS011;23715;53.652;8.516;2023-04-06T01:40:50;16.05;;;14.13;;
37877;SDS011;23715;53.652;8.516;2023-04-06T01:45:52;22.02;;;18.98;;
37877;SDS011;23715;53.652;8.516;2023-04-06T01:50:53;18.57;;;15.55;;
37877;SDS011;23715;53.652;8.516;2023-04-06T01:55:55;16.87;;;14.83;;
37877;SDS011;23715;53.652;8.516;2023-04-06T02:01:00;15.85;;;14.10;;
37877;SDS011;23715;53.652;8.516;2023-04-06T02:06:02;17.67;;;14.98;;
37877;SDS011;23715;53.652;8.516;2023-04-06T02:11:04;15.70;;;13.65;;
37877;SDS011;23715;53.652;8.516;2023-04-06T02:16:06;14.85;;;13.10;;
37877;SDS011;23715;53.652;8.516;2023-04-06T02:21:07;14.40;;;12.37;;
37877;SDS011;23715;53.652;8.516;2023-04-06T02:26:07;14.78;;;13.00;;
37877;SDS011;23715;53.652;8.516;2023-04-06T02:31:08;17.23;;;13.72;;
37877;SDS011;23715;53.652;8.516;2023-04-06T02:36:10;16.35;;;14.00;;
37877;SDS011;23715;53.652;8.516;2023-04-06T02:46:10;18.67;;;16.20;;
37877;SDS011;23715;53.652;8.516;2023-04-06T02:56:12;23.22;;;20.32;;
37877;SDS011;23715;53.652;8.516;2023-04-06T03:01:17;24.47;;;19.60;;
37877;SDS011;23715;53.652;8.516;2023-04-06T03:06:19;26.37;;;19.67;;
37877;SDS011;23715;53.652;8.516;2023-04-06T03:11:21;24.67;;;18.77;;
37877;SDS011;23715;53.652;8.516;2023-04-06T03:16:22;20.95;;;18.12;;
37877;SDS011;23715;53.652;8.516;2023-04-06T03:21:24;23.30;;;17.67;;
37877;SDS011;23715;53.652;8.516;2023-04-06T03:26:25;24.05;;;18.20;;
37877;SDS011;23715;53.652;8.516;2023-04-06T03:31:25;21.12;;;17.87;;
37877;SDS011;23715;53.652;8.516;2023-04-06T03:36:27;20.97;;;17.37;;
37877;SDS011;23715;53.652;8.516;2023-04-06T03:41:29;23.98;;;19.85;;
37877;SDS011;23715;53.652;8.516;2023-04-06T03:46:31;22.70;;;18.30;;
37877;SDS011;23715;53.652;8.516;2023-04-06T03:51:31;23.80;;;18.77;;
37877;SDS011;23715;53.652;8.516;2023-04-06T03:56:33;21.70;;;17.55;;
37877;SDS011;23715;53.652;8.516;2023-04-06T04:01:33;30.50;;;21.02;;
37877;SDS011;23715;53.652;8.516;2023-04-06T04:06:34;35.25;;;25.40;;
37877;SDS011;23715;53.652;8.516;2023-04-06T04:11:34;31.20;;;22.37;;
37877;SDS011;23715;53.652;8.516;2023-04-06T04:16:36;28.17;;;20.90;;
37877;SDS011;23715;53.652;8.516;2023-04-06T04:21:44;28.52;;;23.27;;
37877;SDS011;23715;53.652;8.516;2023-04-06T04:26:46;26.62;;;21.77;;
37877;SDS011;23715;53.652;8.516;2023-04-06T04:31:47;30.75;;;23.77;;
37877;SDS011;23715;53.652;8.516;2023-04-06T04:36:48;30.35;;;24.47;;
37877;SDS011;23715;53.652;8.516;2023-04-06T04:41:50;33.60;;;23.75;;
37877;SDS011;23715;53.652;8.516;2023-04-06T04:46:52;36.15;;;25.23;;
37877;SDS011;23715;53.652;8.516;2023-04-06T04:51:54;30.55;;;24.12;;
37877;SDS011;23715;53.652;8.516;2023-04-06T04:56:56;30.40;;;23.80;;
37877;SDS011;23715;53.652;8.516;2023-04-06T05:01:58;33.88;;;25.48;;
37877;SDS011;23715;53.652;8.516;2023-04-06T05:07:09;31.50;;;24.10;;
37877;SDS011;23715;53.652;8.516;2023-04-06T05:12:06;34.27;;;25.32;;
37877;SDS011;23715;53.652;8.516;2023-04-06T05:17:09;30.30;;;24.10;;
37877;SDS011;23715;53.652;8.516;2023-04-06T05:22:10;31.35;;;24.63;;
37877;SDS011;23715;53.652;8.516;2023-04-06T05:27:13;31.80;;;25.27;;
37877;SDS011;23715;53.652;8.516;2023-04-06T05:32:14;34.10;;;26.87;;
37877;SDS011;23715;53.652;8.516;2023-04-06T05:37:15;33.73;;;26.12;;
37877;SDS011;23715;53.652;8.516;2023-04-06T05:42:16;34.00;;;26.37;;
37877;SDS011;23715;53.652;8.516;2023-04-06T05:47:21;35.87;;;27.90;;
37877;SDS011;23715;53.652;8.516;2023-04-06T05:52:23;34.30;;;26.27;;
37877;SDS011;23715;53.652;8.516;2023-04-06T06:02:23;36.90;;;27.45;;
37877;SDS011;23715;53.652;8.516;2023-04-06T06:07:24;36.68;;;28.35;;
37877;SDS011;23715;53.652;8.516;2023-04-06T06:12:26;39.42;;;29.52;;
37877;SDS011;23715;53.652;8.516;2023-04-06T06:17:26;39.40;;;31.85;;
37877;SDS011;23715;53.652;8.516;2023-04-06T06:22:27;40.17;;;33.90;;
37877;SDS011;23715;53.652;8.516;2023-04-06T06:27:28;40.75;;;34.63;;
37877;SDS011;23715;53.652;8.516;2023-04-06T06:32:32;40.60;;;36.23;;
37877;SDS011;23715;53.652;8.516;2023-04-06T06:37:32;47.00;;;42.13;;
37877;SDS011;23715;53.652;8.516;2023-04-06T06:42:34;41.53;;;37.55;;
37877;SDS011;23715;53.652;8.516;2023-04-06T06:47:39;40.23;;;36.45;;
37877;SDS011;23715;53.652;8.516;2023-04-06T06:52:42;44.03;;;39.60;;
37877;SDS011;23715;53.652;8.516;2023-04-06T06:57:43;45.80;;;41.70;;
37877;SDS011;23715;53.652;8.516;2023-04-06T07:02:45;44.08;;;40.00;;
37877;SDS011;23715;53.652;8.516;2023-04-06T07:07:45;40.05;;;35.98;;
37877;SDS011;23715;53.652;8.516;2023-04-06T07:12:46;36.48;;;32.63;;
37877;SDS011;23715;53.652;8.516;2023-04-06T07:17:48;31.42;;;28.45;;
37877;SDS011;23715;53.652;8.516;2023-04-06T07:22:48;30.02;;;27.20;;
37877;SDS011;23715;53.652;8.516;2023-04-06T07:27:49;28.23;;;25.52;;
37877;SDS011;23715;53.652;8.516;2023-04-06T07:32:50;25.12;;;22.58;;
37877;SDS011;23715;53.652;8.516;2023-04-06T07:37:50;26.37;;;23.75;;
37877;SDS011;23715;53.652;8.516;2023-04-06T07:42:53;29.50;;;26.60;;
37877;SDS011;23715;53.652;8.516;2023-04-06T07:47:58;26.97;;;24.32;;
37877;SDS011;23715;53.652;8.516;2023-04-06T07:52:58;25.20;;;22.62;;
37877;SDS011;23715;53.652;8.516;2023-04-06T07:57:59;21.87;;;19.57;;
37877;SDS011;23715;53.652;8.516;2023-04-06T08:02:59;22.80;;;20.48;;
37877;SDS011;23715;53.652;8.516;2023-04-06T08:08:00;22.37;;;20.23;;
37877;SDS011;23715;53.652;8.516;2023-04-06T08:13:00;22.98;;;20.72;;
37877;SDS011;23715;53.652;8.516;2023-04-06T08:18:00;22.58;;;20.40;;
37877;SDS011;23715;53.652;8.516;2023-04-06T08:23:01;22.60;;;20.70;;
37877;SDS011;23715;53.652;8.516;2023-04-06T08:33:01;22.10;;;20.12;;
37877;SDS011;23715;53.652;8.516;2023-04-06T08:43:14;22.90;;;20.55;;
37877;SDS011;23715;53.652;8.516;2023-04-06T08:48:13;19.52;;;17.85;;
37877;SDS011;23715;53.652;8.516;2023-04-06T08:53:17;18.02;;;16.52;;
37877;SDS011;23715;53.652;8.516;2023-04-06T08:58:19;18.25;;;16.65;;
37877;SDS011;23715;53.652;8.516;2023-04-06T09:03:20;18.73;;;16.95;;
37877;SDS011;23715;53.652;8.516;2023-04-06T09:08:33;18.37;;;16.52;;
37877;SDS011;23715;53.652;8.516;2023-04-06T09:18:48;17.92;;;16.35;;
37877;SDS011;23715;53.652;8.516;2023-04-06T09:29:23;17.37;;;15.75;;
37877;SDS011;23715;53.652;8.516;2023-04-06T09:34:24;18.07;;;16.37;;
37877;SDS011;23715;53.652;8.516;2023-04-06T09:39:27;19.27;;;17.50;;
37877;SDS011;23715;53.652;8.516;2023-04-06T09:50:04;20.20;;;17.95;;
37877;SDS011;23715;53.652;8.516;2023-04-06T09:55:07;18.62;;;17.00;;
37877;SDS011;23715;53.652;8.516;2023-04-06T10:00:09;21.12;;;18.10;;
37877;SDS011;23715;53.652;8.516;2023-04-06T10:10:23;20.27;;;18.25;;
37877;SDS011;23715;53.652;8.516;2023-04-06T10:15:23;21.02;;;19.10;;
37877;SDS011;23715;53.652;8.516;2023-04-06T10:25:55;23.60;;;21.07;;
37877;SDS011;23715;53.652;8.516;2023-04-06T10:30:58;22.60;;;20.40;;
37877;SDS011;23715;53.652;8.516;2023-04-06T10:36:15;24.37;;;22.07;;
37877;SDS011;23715;53.652;8.516;2023-04-06T10:41:36;23.27;;;21.02;;
37877;SDS011;23715;53.652;8.516;2023-04-06T10:46:33;25.57;;;21.07;;
37877;SDS011;23715;53.652;8.516;2023-04-06T10:51:37;26.17;;;23.18;;
37877;SDS011;23715;53.652;8.516;2023-04-06T10:56:37;25.43;;;22.95;;
37877;SDS011;23715;53.652;8.516;2023-04-06T11:01:37;23.98;;;21.40;;
37877;SDS011;23715;53.652;8.516;2023-04-06T11:06:39;27.17;;;24.43;;
37877;SDS011;23715;53.652;8.516;2023-04-06T11:11:40;25.92;;;23.22;;
37877;SDS011;23715;53.652;8.516;2023-04-06T11:16:40;30.40;;;23.10;;
37877;SDS011;23715;53.652;8.516;2023-04-06T11:21:41;30.30;;;25.65;;
37877;SDS011;23715;53.652;8.516;2023-04-06T11:26:52;29.82;;;26.68;;
37877;SDS011;23715;53.652;8.516;2023-04-06T11:32:00;29.32;;;26.50;;
37877;SDS011;23715;53.652;8.516;2023-04-06T11:37:03;32.88;;;29.18;;
37877;SDS011;23715;53.652;8.516;2023-04-06T11:42:05;28.67;;;25.72;;
37877;SDS011;23715;53.652;8.516;2023-04-06T11:52:19;29.33;;;26.23;;
37877;SDS011;23715;53.652;8.516;2023-04-06T12:02:28;34.23;;;28.10;;
37877;SDS011;23715;53.652;8.516;2023-04-06T12:07:30;29.35;;;26.17;;
37877;SDS011;23715;53.652;8.516;2023-04-06T12:17:45;29.48;;;26.45;;
37877;SDS011;23715;53.652;8.516;2023-04-06T12:22:59;32.08;;;27.30;;
37877;SDS011;23715;53.652;8.516;2023-04-06T12:51:03;34.15;;;28.40;;
37877;SDS011;23715;53.652;8.516;2023-04-06T13:02:06;30.77;;;27.58;;
37877;SDS011;23715;53.652;8.516;2023-04-06T13:12:06;29.37;;;26.15;;
37877;SDS011;23715;53.652;8.516;2023-04-06T13:17:09;28.35;;;24.92;;
37877;SDS011;23715;53.652;8.516;2023-04-06T13:22:14;28.07;;;24.92;;
37877;SDS011;23715;53.652;8.516;2023-04-06T13:27:29;30.30;;;27.15;;
37877;SDS011;23715;53.652;8.516;2023-04-06T13:32:33;25.17;;;22.40;;
37877;SDS011;23715;53.652;8.516;2023-04-06T13:38:04;28.62;;;25.65;;
37877;SDS011;23715;53.652;8.516;2023-04-06T13:43:10;26.27;;;23.52;;
37877;SDS011;23715;53.652;8.516;2023-04-06T13:48:19;26.77;;;23.73;;
37877;SDS011;23715;53.652;8.516;2023-04-06T13:53:26;25.08;;;22.50;;
37877;SDS011;23715;53.652;8.516;2023-04-06T14:03:33;24.25;;;21.75;;
37877;SDS011;23715;53.652;8.516;2023-04-06T14:08:34;22.85;;;20.62;;
37877;SDS011;23715;53.652;8.516;2023-04-06T14:13:34;24.37;;;21.93;;
37877;SDS011;23715;53.652;8.516;2023-04-06T14:18:36;25.62;;;22.87;;
37877;SDS011;23715;53.652;8.516;2023-04-06T14:23:36;25.25;;;22.48;;
37877;SDS011;23715;53.652;8.516;2023-04-06T14:28:37;23.00;;;20.60;;
37877;SDS011;23715;53.652;8.516;2023-04-06T14:33:37;22.10;;;20.00;;
37877;SDS011;23715;53.652;8.516;2023-04-06T14:38:38;23.90;;;21.50;;
37877;SDS011;23715;53.652;8.516;2023-04-06T14:48:39;24.25;;;20.97;;
37877;SDS011;23715;53.652;8.516;2023-04-06T14:53:39;21.70;;;19.50;;
37877;SDS011;23715;53.652;8.516;2023-04-06T14:58:39;22.90;;;19.45;;
37877;SDS011;23715;53.652;8.516;2023-04-06T15:03:40;22.90;;;20.50;;
37877;SDS011;23715;53.652;8.516;2023-04-06T15:08:41;28.47;;;23.27;;
37877;SDS011;23715;53.652;8.516;2023-04-06T15:13:42;27.60;;;22.62;;
37877;SDS011;23715;53.652;8.516;2023-04-06T15:23:42;23.73;;;21.25;;
37877;SDS011;23715;53.652;8.516;2023-04-06T15:28:44;22.52;;;20.17;;
37877;SDS011;23715;53.652;8.516;2023-04-06T15:33:45;21.90;;;19.80;;
37877;SDS011;23715;53.652;8.516;2023-04-06T15:38:45;22.07;;;20.00;;
37877;SDS011;23715;53.652;8.516;2023-04-06T15:43:45;21.90;;;19.63;;
37877;SDS011;23715;53.652;8.516;2023-04-06T15:53:46;21.23;;;19.02;;
37877;SDS011;23715;53.652;8.516;2023-04-06T15:58:50;20.80;;;18.85;;
37877;SDS011;23715;53.652;8.516;2023-04-06T16:03:52;22.65;;;19.10;;
37877;SDS011;23715;53.652;8.516;2023-04-06T16:08:53;21.52;;;19.23;;
37877;SDS011;23715;53.652;8.516;2023-04-06T16:13:54;22.10;;;19.80;;
37877;SDS011;23715;53.652;8.516;2023-04-06T16:19:03;22.62;;;20.00;;
37877;SDS011;23715;53.652;8.516;2023-04-06T16:24:10;24.50;;;21.95;;
37877;SDS011;23715;53.652;8.516;2023-04-06T16:29:10;21.27;;;19.07;;
37877;SDS011;23715;53.652;8.516;2023-04-06T16:34:10;25.72;;;21.85;;
37877;SDS011;23715;53.652;8.516;2023-04-06T16:39:11;23.00;;;20.63;;
37877;SDS011;23715;53.652;8.516;2023-04-06T16:44:11;23.05;;;20.65;;
37877;SDS011;23715;53.652;8.516;2023-04-06T16:49:12;24.37;;;21.77;;
37877;SDS011;23715;53.652;8.516;2023-04-06T16:54:16;25.00;;;22.37;;
37877;SDS011;23715;53.652;8.516;2023-04-06T16:59:19;24.05;;;21.50;;
37877;SDS011;23715;53.652;8.516;2023-04-06T17:04:19;27.15;;;22.02;;
37877;SDS011;23715;53.652;8.516;2023-04-06T17:09:20;23.18;;;20.88;;
37877;SDS011;23715;53.652;8.516;2023-04-06T17:14:21;22.95;;;20.55;;
37877;SDS011;23715;53.652;8.516;2023-04-06T17:19:21;25.85;;;21.27;;
37877;SDS011;23715;53.652;8.516;2023-04-06T17:24:23;25.23;;;21.80;;
37877;SDS011;23715;53.652;8.516;2023-04-06T17:29:23;27.87;;;22.52;;
37877;SDS011;23715;53.652;8.516;2023-04-06T17:34:23;23.57;;;19.55;;
37877;SDS011;23715;53.652;8.516;2023-04-06T17:39:24;24.65;;;20.37;;
37877;SDS011;23715;53.652;8.516;2023-04-06T17:44:24;30.05;;;20.65;;
37877;SDS011;23715;53.652;8.516;2023-04-06T17:49:24;23.77;;;20.82;;
37877;SDS011;23715;53.652;8.516;2023-04-06T18:10:41;27.35;;;19.20;;
37877;SDS011;23715;53.652;8.516;2023-04-06T18:15:44;23.77;;;18.80;;
37877;SDS011;23715;53.652;8.516;2023-04-06T18:20:45;23.35;;;18.73;;
37877;SDS011;23715;53.652;8.516;2023-04-06T18:25:45;20.70;;;18.25;;
37877;SDS011;23715;53.652;8.516;2023-04-06T18:30:45;25.97;;;21.55;;
37877;SDS011;23715;53.652;8.516;2023-04-06T18:35:46;22.65;;;18.62;;
37877;SDS011;23715;53.652;8.516;2023-04-06T18:40:49;24.15;;;19.73;;
37877;SDS011;23715;53.652;8.516;2023-04-06T18:45:50;22.82;;;19.75;;
37877;SDS011;23715;53.652;8.516;2023-04-06T18:50:56;24.02;;;20.20;;
37877;SDS011;23715;53.652;8.516;2023-04-06T19:00:58;20.82;;;18.62;;
37877;SDS011;23715;53.652;8.516;2023-04-06T19:05:58;22.82;;;19.42;;
37877;SDS011;23715;53.652;8.516;2023-04-06T19:11:03;22.65;;;20.25;;
37877;SDS011;23715;53.652;8.516;2023-04-06T19:16:07;21.82;;;19.45;;
37877;SDS011;23715;53.652;8.516;2023-04-06T19:21:16;22.87;;;20.12;;
37877;SDS011;23715;53.652;8.516;2023-04-06T19:26:19;27.87;;;21.37;;
37877;SDS011;23715;53.652;8.516;2023-04-06T19:31:22;24.45;;;20.80;;
37877;SDS011;23715;53.652;8.516;2023-04-06T19:36:24;23.07;;;20.15;;
37877;SDS011;23715;53.652;8.516;2023-04-06T19:41:25;26.82;;;20.32;;
37877;SDS011;23715;53.652;8.516;2023-04-06T19:46:27;25.60;;;20.55;;
37877;SDS011;23715;53.652;8.516;2023-04-06T19:51:32;21.80;;;19.30;;
37877;SDS011;23715;53.652;8.516;2023-04-06T19:56:33;23.67;;;19.30;;
37877;SDS011;23715;53.652;8.516;2023-04-06T20:01:35;27.85;;;20.37;;
37877;SDS011;23715;53.652;8.516;2023-04-06T20:06:35;20.90;;;18.67;;
37877;SDS011;23715;53.652;8.516;2023-04-06T20:11:37;25.25;;;19.82;;
37877;SDS011;23715;53.652;8.516;2023-04-06T20:16:37;29.77;;;19.87;;
37877;SDS011;23715;53.652;8.516;2023-04-06T20:21:40;22.90;;;18.12;;
37877;SDS011;23715;53.652;8.516;2023-04-06T20:26:42;22.52;;;19.23;;
37877;SDS011;23715;53.652;8.516;2023-04-06T20:31:43;27.95;;;22.58;;
37877;SDS011;23715;53.652;8.516;2023-04-06T20:36:44;22.75;;;18.32;;
37877;SDS011;23715;53.652;8.516;2023-04-06T20:41:45;22.55;;;19.12;;
37877;SDS011;23715;53.652;8.516;2023-04-06T20:46:49;22.37;;;19.02;;
37877;SDS011;23715;53.652;8.516;2023-04-06T20:56:50;20.10;;;18.10;;
37877;SDS011;23715;53.652;8.516;2023-04-06T21:01:55;21.55;;;19.45;;
37877;SDS011;23715;53.652;8.516;2023-04-06T21:06:58;21.27;;;19.02;;
37877;SDS011;23715;53.652;8.516;2023-04-06T21:12:04;24.40;;;20.12;;
37877;SDS011;23715;53.652;8.516;2023-04-06T21:17:16;20.40;;;18.45;;
37877;SDS011;23715;53.652;8.516;2023-04-06T21:22:20;21.57;;;19.20;;
37877;SDS011;23715;53.652;8.516;2023-04-06T21:37:55;21.20;;;19.10;;
37877;SDS011;23715;53.652;8.516;2023-04-06T21:42:57;21.73;;;19.42;;
37877;SDS011;23715;53.652;8.516;2023-04-06T21:47:57;25.25;;;20.23;;
37877;SDS011;23715;53.652;8.516;2023-04-06T21:52:58;22.52;;;20.10;;
37877;SDS011;23715;53.652;8.516;2023-04-06T21:57:58;23.95;;;19.37;;
37877;SDS011;23715;53.652;8.516;2023-04-06T22:02:59;21.02;;;18.77;;
37877;SDS011;23715;53.652;8.516;2023-04-06T22:08:00;22.07;;;19.73;;
37877;SDS011;23715;53.652;8.516;2023-04-06T22:13:03;22.42;;;19.50;;
37877;SDS011;23715;53.652;8.516;2023-04-06T22:18:07;22.45;;;19.67;;
37877;SDS011;23715;53.652;8.516;2023-04-06T22:23:09;23.47;;;19.15;;
37877;SDS011;23715;53.652;8.516;2023-04-06T22:28:09;23.35;;;20.88;;
37877;SDS011;23715;53.652;8.516;2023-04-06T22:33:09;24.75;;;20.65;;
37877;SDS011;23715;53.652;8.516;2023-04-06T22:38:10;22.10;;;19.48;;
37877;SDS011;23715;53.652;8.516;2023-04-06T22:43:10;23.35;;;20.08;;
37877;SDS011;23715;53.652;8.516;2023-04-06T22:53:17;27.98;;;19.85;;
37877;SDS011;23715;53.652;8.516;2023-04-06T22:58:29;22.70;;;20.30;;
37877;SDS011;23715;53.652;8.516;2023-04-06T23:03:33;22.02;;;19.37;;
37877;SDS011;23715;53.652;8.516;2023-04-06T23:08:41;21.70;;;18.98;;
37877;SDS011;23715;53.652;8.516;2023-04-06T23:13:48;23.27;;;19.57;;
37877;SDS011;23715;53.652;8.516;2023-04-06T23:18:52;22.42;;;20.02;;
37877;SDS011;23715;53.652;8.516;2023-04-06T23:23:57;21.77;;;19.48;;
37877;SDS011;23715;53.652;8.516;2023-04-06T23:29:04;23.65;;;20.17;;
37877;SDS011;23715;53.652;8.516;2023-04-06T23:34:15;26.57;;;20.95;;
37877;SDS011;23715;53.652;8.516;2023-04-06T23:39:26;22.82;;;19.73;;
37877;SDS011;23715;53.652;8.516;2023-04-06T23:44:33;51.02;;;32.45;;
37877;SDS011;23715;53.652;8.516;2023-04-06T23:49:40;23.98;;;21.50;;
37877;SDS011;23715;53.652;8.516;2023-04-06T23:54:47;26.65;;;21.00;;
37877;SDS011;23715;53.652;8.516;2023-04-06T23:59:49;22.27;;;19.50;;
